Portada
METAR-TAF:

METAR-TAF

Aeroports :

Ohio State University Airport

Columbus, Ohio, Estats Units d'Amèrica

latitud: 40-04-41N, longitud: 083-04-41W, altitud: 275 m

Observació

L'informe es va fer fa 55 minuts, a les 01:53 UTC
Vent 6 kt del Nord-Oest
Temperatura 24°C
Humitat 61%
Pressió 1011 hPa
Visibilitat: 16.1 km
Cel clar

METAR: KOSU 260153Z 32006KT 10SM CLR 24/16 A2985 RMK AO2 SLP101 T02440161

Hora: 22:48 (02:48 UTC)


TAF: manca

Observacions i pronòstics meteorològics de més de 4000 aeroports (METAR i TAF).

Les estacions disponibles són els punts grocs i vermells al mapa.

Posi el ratolí al punt desitjat per veure el nom de l'estació.

Feu clic per veure les observacions i els pronòstics meteorològics.

Per canviar el mapa: feu clic els botons verds amb una creu de color negre per apropar; al botó verd amb un guió per allunyar la imatge; o en les fletxes verdes per a mapes adjacents.


METAR-TAF: